sensor_id;sensor_type;location;lat;lon;timestamp;temperature;humidity
64689;DHT22;62504;46.070;14.492;2023-02-03T00:01:02;4.80;99.90
64689;DHT22;62504;46.070;14.492;2023-02-03T00:03:28;5.10;99.90
64689;DHT22;62504;46.070;14.492;2023-02-03T00:05:54;5.00;99.90
64689;DHT22;62504;46.070;14.492;2023-02-03T00:08:20;5.00;99.90
64689;DHT22;62504;46.070;14.492;2023-02-03T00:10:47;5.20;99.90
64689;DHT22;62504;46.070;14.492;2023-02-03T00:13:13;5.20;99.90
64689;DHT22;62504;46.070;14.492;2023-02-03T00:15:39;5.10;99.90
64689;DHT22;62504;46.070;14.492;2023-02-03T00:18:05;5.00;99.90
64689;DHT22;62504;46.070;14.492;2023-02-03T00:20:31;4.80;99.90
64689;DHT22;62504;46.070;14.492;2023-02-03T00:23:09;4.90;99.90
64689;DHT22;62504;46.070;14.492;2023-02-03T00:25:35;4.80;99.90
64689;DHT22;62504;46.070;14.492;2023-02-03T00:28:01;4.80;99.90
64689;DHT22;62504;46.070;14.492;2023-02-03T00:30:27;4.70;99.90
64689;DHT22;62504;46.070;14.492;2023-02-03T00:32:53;4.70;99.90
64689;DHT22;62504;46.070;14.492;2023-02-03T00:35:19;4.70;99.90
64689;DHT22;62504;46.070;14.492;2023-02-03T00:37:55;4.80;99.90
64689;DHT22;62504;46.070;14.492;2023-02-03T00:40:22;4.80;99.90
64689;DHT22;62504;46.070;14.492;2023-02-03T00:42:48;4.80;99.90
64689;DHT22;62504;46.070;14.492;2023-02-03T00:45:14;5.00;99.90
64689;DHT22;62504;46.070;14.492;2023-02-03T00:47:40;5.00;99.90
64689;DHT22;62504;46.070;14.492;2023-02-03T00:50:06;4.90;99.90
64689;DHT22;62504;46.070;14.492;2023-02-03T00:52:32;4.90;99.90
64689;DHT22;62504;46.070;14.492;2023-02-03T00:54:58;5.00;99.90
64689;DHT22;62504;46.070;14.492;2023-02-03T00:57:24;4.80;99.90
64689;DHT22;62504;46.070;14.492;2023-02-03T00:59:49;5.00;99.90
64689;DHT22;62504;46.070;14.492;2023-02-03T01:02:15;5.00;99.90
64689;DHT22;62504;46.070;14.492;2023-02-03T01:04:42;5.00;99.90
64689;DHT22;62504;46.070;14.492;2023-02-03T01:07:08;4.90;99.90
64689;DHT22;62504;46.070;14.492;2023-02-03T01:09:34;4.80;99.90
64689;DHT22;62504;46.070;14.492;2023-02-03T01:12:00;4.90;99.90
64689;DHT22;62504;46.070;14.492;2023-02-03T01:14:26;4.90;99.90
64689;DHT22;62504;46.070;14.492;2023-02-03T01:16:52;4.80;99.90
64689;DHT22;62504;46.070;14.492;2023-02-03T01:19:18;4.70;99.90
64689;DHT22;62504;46.070;14.492;2023-02-03T01:21:44;4.80;99.90
64689;DHT22;62504;46.070;14.492;2023-02-03T01:24:09;4.80;99.90
64689;DHT22;62504;46.070;14.492;2023-02-03T01:26:35;4.70;99.90
64689;DHT22;62504;46.070;14.492;2023-02-03T01:29:01;4.80;99.90
64689;DHT22;62504;46.070;14.492;2023-02-03T01:31:32;4.80;99.90
64689;DHT22;62504;46.070;14.492;2023-02-03T01:34:00;4.80;99.90
64689;DHT22;62504;46.070;14.492;2023-02-03T01:36:28;4.80;99.90
64689;DHT22;62504;46.070;14.492;2023-02-03T01:38:54;4.90;99.90
64689;DHT22;62504;46.070;14.492;2023-02-03T01:41:23;4.70;99.90
64689;DHT22;62504;46.070;14.492;2023-02-03T01:43:51;4.90;99.90
64689;DHT22;62504;46.070;14.492;2023-02-03T01:46:25;4.60;99.90
64689;DHT22;62504;46.070;14.492;2023-02-03T01:48:53;4.70;99.90
64689;DHT22;62504;46.070;14.492;2023-02-03T01:51:20;4.60;99.90
64689;DHT22;62504;46.070;14.492;2023-02-03T01:53:47;4.60;99.90
64689;DHT22;62504;46.070;14.492;2023-02-03T01:56:14;4.50;99.90
64689;DHT22;62504;46.070;14.492;2023-02-03T01:58:41;4.00;99.90
64689;DHT22;62504;46.070;14.492;2023-02-03T02:01:08;4.30;99.90
64689;DHT22;62504;46.070;14.492;2023-02-03T02:03:37;4.20;99.90
64689;DHT22;62504;46.070;14.492;2023-02-03T02:06:07;4.10;99.90
64689;DHT22;62504;46.070;14.492;2023-02-03T02:08:34;4.20;99.90
64689;DHT22;62504;46.070;14.492;2023-02-03T02:11:00;4.30;99.90
64689;DHT22;62504;46.070;14.492;2023-02-03T02:13:28;4.20;99.90
64689;DHT22;62504;46.070;14.492;2023-02-03T02:16:15;4.10;99.90
64689;DHT22;62504;46.070;14.492;2023-02-03T02:22:13;3.80;99.90
64689;DHT22;62504;46.070;14.492;2023-02-03T02:41:22;3.40;99.90
64689;DHT22;62504;46.070;14.492;2023-02-03T02:44:02;3.60;99.90
64689;DHT22;62504;46.070;14.492;2023-02-03T02:46:49;3.70;99.90
64689;DHT22;62504;46.070;14.492;2023-02-03T02:49:29;3.60;99.90
64689;DHT22;62504;46.070;14.492;2023-02-03T02:51:57;3.50;99.90
64689;DHT22;62504;46.070;14.492;2023-02-03T02:54:26;3.10;99.90
64689;DHT22;62504;46.070;14.492;2023-02-03T02:56:56;3.10;99.90
64689;DHT22;62504;46.070;14.492;2023-02-03T02:59:23;2.90;99.90
64689;DHT22;62504;46.070;14.492;2023-02-03T03:01:49;2.90;99.90
64689;DHT22;62504;46.070;14.492;2023-02-03T03:04:20;3.00;99.90
64689;DHT22;62504;46.070;14.492;2023-02-03T03:06:47;3.00;99.90
64689;DHT22;62504;46.070;14.492;2023-02-03T03:09:27;3.00;99.90
64689;DHT22;62504;46.070;14.492;2023-02-03T03:12:05;3.00;99.90
64689;DHT22;62504;46.070;14.492;2023-02-03T03:14:33;2.90;99.90
64689;DHT22;62504;46.070;14.492;2023-02-03T03:17:04;2.80;99.90
64689;DHT22;62504;46.070;14.492;2023-02-03T03:19:36;2.70;99.90
64689;DHT22;62504;46.070;14.492;2023-02-03T03:22:06;2.80;99.90
64689;DHT22;62504;46.070;14.492;2023-02-03T03:24:46;2.70;99.90
64689;DHT22;62504;46.070;14.492;2023-02-03T03:27:22;2.70;99.90
64689;DHT22;62504;46.070;14.492;2023-02-03T03:29:59;2.40;99.90
64689;DHT22;62504;46.070;14.492;2023-02-03T03:32:26;2.50;99.90
64689;DHT22;62504;46.070;14.492;2023-02-03T03:34:55;2.50;99.90
64689;DHT22;62504;46.070;14.492;2023-02-03T03:37:41;2.60;99.90
64689;DHT22;62504;46.070;14.492;2023-02-03T03:40:23;2.70;99.90
64689;DHT22;62504;46.070;14.492;2023-02-03T03:43:02;2.50;99.90
64689;DHT22;62504;46.070;14.492;2023-02-03T03:48:20;2.50;99.90
64689;DHT22;62504;46.070;14.492;2023-02-03T03:50:57;2.60;99.90
64689;DHT22;62504;46.070;14.492;2023-02-03T03:53:27;2.60;99.90
64689;DHT22;62504;46.070;14.492;2023-02-03T03:55:55;2.50;99.90
64689;DHT22;62504;46.070;14.492;2023-02-03T03:58:25;2.20;99.90
64689;DHT22;62504;46.070;14.492;2023-02-03T04:00:55;2.10;99.90
64689;DHT22;62504;46.070;14.492;2023-02-03T04:03:32;2.20;99.90
64689;DHT22;62504;46.070;14.492;2023-02-03T04:06:02;2.40;99.90
64689;DHT22;62504;46.070;14.492;2023-02-03T04:08:28;2.60;99.90
64689;DHT22;62504;46.070;14.492;2023-02-03T04:10:53;2.60;99.90
64689;DHT22;62504;46.070;14.492;2023-02-03T04:13:19;2.60;99.90
64689;DHT22;62504;46.070;14.492;2023-02-03T04:15:45;2.50;99.90
64689;DHT22;62504;46.070;14.492;2023-02-03T04:18:14;2.60;99.90
64689;DHT22;62504;46.070;14.492;2023-02-03T04:20:41;2.60;99.90
64689;DHT22;62504;46.070;14.492;2023-02-03T04:23:07;2.70;99.90
64689;DHT22;62504;46.070;14.492;2023-02-03T04:25:33;2.60;99.90
64689;DHT22;62504;46.070;14.492;2023-02-03T04:27:59;2.50;99.90
64689;DHT22;62504;46.070;14.492;2023-02-03T04:30:25;2.50;99.90
64689;DHT22;62504;46.070;14.492;2023-02-03T04:32:51;2.40;99.90
64689;DHT22;62504;46.070;14.492;2023-02-03T04:35:18;2.30;99.90
64689;DHT22;62504;46.070;14.492;2023-02-03T04:37:44;2.00;99.90
64689;DHT22;62504;46.070;14.492;2023-02-03T04:40:10;2.00;99.90
64689;DHT22;62504;46.070;14.492;2023-02-03T04:42:36;2.10;99.90
64689;DHT22;62504;46.070;14.492;2023-02-03T04:45:03;2.20;99.90
64689;DHT22;62504;46.070;14.492;2023-02-03T04:47:29;2.10;99.90
64689;DHT22;62504;46.070;14.492;2023-02-03T04:49:55;2.00;99.90
64689;DHT22;62504;46.070;14.492;2023-02-03T04:52:20;2.10;99.90
64689;DHT22;62504;46.070;14.492;2023-02-03T04:54:46;2.20;99.90
64689;DHT22;62504;46.070;14.492;2023-02-03T04:57:12;2.10;99.90
64689;DHT22;62504;46.070;14.492;2023-02-03T04:59:37;2.10;99.90
64689;DHT22;62504;46.070;14.492;2023-02-03T05:02:03;2.00;99.90
64689;DHT22;62504;46.070;14.492;2023-02-03T05:04:29;2.00;99.90
64689;DHT22;62504;46.070;14.492;2023-02-03T05:06:55;2.10;99.90
64689;DHT22;62504;46.070;14.492;2023-02-03T05:09:22;2.00;99.90
64689;DHT22;62504;46.070;14.492;2023-02-03T05:11:48;2.10;99.90
64689;DHT22;62504;46.070;14.492;2023-02-03T05:14:13;2.20;99.90
64689;DHT22;62504;46.070;14.492;2023-02-03T05:16:39;2.20;99.90
64689;DHT22;62504;46.070;14.492;2023-02-03T05:19:05;2.20;99.90
64689;DHT22;62504;46.070;14.492;2023-02-03T05:21:31;2.10;99.90
64689;DHT22;62504;46.070;14.492;2023-02-03T05:23:56;2.10;99.90
64689;DHT22;62504;46.070;14.492;2023-02-03T05:26:22;2.20;99.90
64689;DHT22;62504;46.070;14.492;2023-02-03T05:28:48;2.20;99.90
64689;DHT22;62504;46.070;14.492;2023-02-03T05:31:14;2.20;99.90
64689;DHT22;62504;46.070;14.492;2023-02-03T05:33:39;2.30;99.90
64689;DHT22;62504;46.070;14.492;2023-02-03T05:36:05;2.30;99.90
64689;DHT22;62504;46.070;14.492;2023-02-03T05:38:31;2.30;99.90
64689;DHT22;62504;46.070;14.492;2023-02-03T05:40:57;2.30;99.90
64689;DHT22;62504;46.070;14.492;2023-02-03T05:43:41;2.20;99.90
64689;DHT22;62504;46.070;14.492;2023-02-03T05:46:07;2.20;99.90
64689;DHT22;62504;46.070;14.492;2023-02-03T05:48:33;2.20;99.90
64689;DHT22;62504;46.070;14.492;2023-02-03T05:50:59;2.10;99.90
64689;DHT22;62504;46.070;14.492;2023-02-03T05:53:25;2.00;99.90
64689;DHT22;62504;46.070;14.492;2023-02-03T05:55:51;2.00;99.90
64689;DHT22;62504;46.070;14.492;2023-02-03T05:58:17;2.10;99.90
64689;DHT22;62504;46.070;14.492;2023-02-03T06:00:43;2.20;99.90
64689;DHT22;62504;46.070;14.492;2023-02-03T06:03:09;2.10;99.90
64689;DHT22;62504;46.070;14.492;2023-02-03T06:05:35;2.00;99.90
64689;DHT22;62504;46.070;14.492;2023-02-03T06:08:06;2.10;99.90
64689;DHT22;62504;46.070;14.492;2023-02-03T06:10:32;2.10;99.90
64689;DHT22;62504;46.070;14.492;2023-02-03T06:12:59;2.00;99.90
64689;DHT22;62504;46.070;14.492;2023-02-03T06:15:24;1.90;99.90
64689;DHT22;62504;46.070;14.492;2023-02-03T06:17:50;2.00;99.90
64689;DHT22;62504;46.070;14.492;2023-02-03T06:20:18;2.00;99.90
64689;DHT22;62504;46.070;14.492;2023-02-03T06:22:44;2.00;99.90
64689;DHT22;62504;46.070;14.492;2023-02-03T06:25:10;1.80;99.90
64689;DHT22;62504;46.070;14.492;2023-02-03T06:27:36;1.80;99.90
64689;DHT22;62504;46.070;14.492;2023-02-03T06:30:02;1.90;99.90
64689;DHT22;62504;46.070;14.492;2023-02-03T06:32:28;2.00;99.90
64689;DHT22;62504;46.070;14.492;2023-02-03T06:34:54;2.10;99.90
64689;DHT22;62504;46.070;14.492;2023-02-03T06:37:19;2.10;99.90
64689;DHT22;62504;46.070;14.492;2023-02-03T06:39:45;2.20;99.90
64689;DHT22;62504;46.070;14.492;2023-02-03T06:42:10;2.30;99.90
64689;DHT22;62504;46.070;14.492;2023-02-03T06:44:36;2.30;99.90
64689;DHT22;62504;46.070;14.492;2023-02-03T06:47:02;2.30;99.90
64689;DHT22;62504;46.070;14.492;2023-02-03T06:49:28;2.30;99.90
64689;DHT22;62504;46.070;14.492;2023-02-03T06:51:55;2.30;99.90
64689;DHT22;62504;46.070;14.492;2023-02-03T06:54:21;2.30;99.90
64689;DHT22;62504;46.070;14.492;2023-02-03T06:56:46;2.40;99.90
64689;DHT22;62504;46.070;14.492;2023-02-03T06:59:12;2.40;99.90
64689;DHT22;62504;46.070;14.492;2023-02-03T07:01:38;2.40;99.90
64689;DHT22;62504;46.070;14.492;2023-02-03T07:04:04;2.50;99.90
64689;DHT22;62504;46.070;14.492;2023-02-03T07:06:30;2.50;99.90
64689;DHT22;62504;46.070;14.492;2023-02-03T07:09:00;2.30;99.90
64689;DHT22;62504;46.070;14.492;2023-02-03T07:11:27;2.20;99.90
64689;DHT22;62504;46.070;14.492;2023-02-03T07:13:53;1.80;99.90
64689;DHT22;62504;46.070;14.492;2023-02-03T07:16:19;1.80;99.90
64689;DHT22;62504;46.070;14.492;2023-02-03T07:18:45;1.90;99.90
64689;DHT22;62504;46.070;14.492;2023-02-03T07:21:12;2.20;99.90
64689;DHT22;62504;46.070;14.492;2023-02-03T07:23:38;2.20;99.90
64689;DHT22;62504;46.070;14.492;2023-02-03T07:26:05;2.40;99.90
64689;DHT22;62504;46.070;14.492;2023-02-03T07:28:32;2.40;99.90
64689;DHT22;62504;46.070;14.492;2023-02-03T07:30:58;2.40;99.90
64689;DHT22;62504;46.070;14.492;2023-02-03T07:33:23;2.30;99.90
64689;DHT22;62504;46.070;14.492;2023-02-03T07:35:56;2.50;99.90
64689;DHT22;62504;46.070;14.492;2023-02-03T07:38:23;2.80;99.90
64689;DHT22;62504;46.070;14.492;2023-02-03T07:40:49;3.20;99.90
64689;DHT22;62504;46.070;14.492;2023-02-03T07:43:15;3.10;99.90
64689;DHT22;62504;46.070;14.492;2023-02-03T07:45:40;2.90;99.90
64689;DHT22;62504;46.070;14.492;2023-02-03T07:48:06;2.90;99.90
64689;DHT22;62504;46.070;14.492;2023-02-03T07:50:32;3.40;99.90
64689;DHT22;62504;46.070;14.492;2023-02-03T07:52:58;3.70;99.90
64689;DHT22;62504;46.070;14.492;2023-02-03T07:55:24;3.80;99.90
64689;DHT22;62504;46.070;14.492;2023-02-03T07:57:52;3.80;99.90
64689;DHT22;62504;46.070;14.492;2023-02-03T08:00:18;4.10;99.90
64689;DHT22;62504;46.070;14.492;2023-02-03T08:02:44;4.30;99.90
64689;DHT22;62504;46.070;14.492;2023-02-03T08:05:11;4.70;99.90
64689;DHT22;62504;46.070;14.492;2023-02-03T08:07:37;4.70;99.90
64689;DHT22;62504;46.070;14.492;2023-02-03T08:10:03;5.30;99.90
64689;DHT22;62504;46.070;14.492;2023-02-03T08:12:28;5.20;99.90
64689;DHT22;62504;46.070;14.492;2023-02-03T08:14:54;5.10;99.90
64689;DHT22;62504;46.070;14.492;2023-02-03T08:17:20;4.60;99.90
64689;DHT22;62504;46.070;14.492;2023-02-03T08:19:45;5.10;99.90
64689;DHT22;62504;46.070;14.492;2023-02-03T08:22:11;5.70;99.90
64689;DHT22;62504;46.070;14.492;2023-02-03T08:24:45;6.20;99.90
64689;DHT22;62504;46.070;14.492;2023-02-03T08:27:16;5.80;99.90
64689;DHT22;62504;46.070;14.492;2023-02-03T08:29:43;6.10;99.90
64689;DHT22;62504;46.070;14.492;2023-02-03T08:32:10;5.90;99.90
64689;DHT22;62504;46.070;14.492;2023-02-03T08:34:36;6.20;99.90
64689;DHT22;62504;46.070;14.492;2023-02-03T08:37:02;6.40;99.90
64689;DHT22;62504;46.070;14.492;2023-02-03T08:39:27;6.70;99.90
64689;DHT22;62504;46.070;14.492;2023-02-03T08:41:53;6.60;99.90
64689;DHT22;62504;46.070;14.492;2023-02-03T08:44:19;7.10;99.90
64689;DHT22;62504;46.070;14.492;2023-02-03T08:46:48;7.90;99.90
64689;DHT22;62504;46.070;14.492;2023-02-03T08:49:14;8.30;99.90
64689;DHT22;62504;46.070;14.492;2023-02-03T08:51:40;8.70;99.90
64689;DHT22;62504;46.070;14.492;2023-02-03T08:54:05;9.50;99.90
64689;DHT22;62504;46.070;14.492;2023-02-03T08:56:31;10.50;99.90
64689;DHT22;62504;46.070;14.492;2023-02-03T08:58:58;11.40;99.90
64689;DHT22;62504;46.070;14.492;2023-02-03T09:01:24;12.20;99.90
64689;DHT22;62504;46.070;14.492;2023-02-03T09:03:50;12.30;99.90
64689;DHT22;62504;46.070;14.492;2023-02-03T09:06:15;12.20;99.90
64689;DHT22;62504;46.070;14.492;2023-02-03T09:08:42;12.10;99.90
64689;DHT22;62504;46.070;14.492;2023-02-03T09:11:09;11.70;99.90
64689;DHT22;62504;46.070;14.492;2023-02-03T09:13:36;11.20;99.90
64689;DHT22;62504;46.070;14.492;2023-02-03T09:16:02;11.00;99.90
64689;DHT22;62504;46.070;14.492;2023-02-03T09:18:27;10.70;99.90
64689;DHT22;62504;46.070;14.492;2023-02-03T09:21:06;11.00;99.90
64689;DHT22;62504;46.070;14.492;2023-02-03T09:23:32;11.60;99.90
64689;DHT22;62504;46.070;14.492;2023-02-03T09:26:09;11.90;99.90
64689;DHT22;62504;46.070;14.492;2023-02-03T09:28:36;11.90;99.90
64689;DHT22;62504;46.070;14.492;2023-02-03T09:31:03;11.50;99.90
64689;DHT22;62504;46.070;14.492;2023-02-03T09:33:29;11.60;99.90
64689;DHT22;62504;46.070;14.492;2023-02-03T09:35:56;11.80;99.90
64689;DHT22;62504;46.070;14.492;2023-02-03T09:38:23;11.80;99.90
64689;DHT22;62504;46.070;14.492;2023-02-03T09:40:53;12.00;99.90
64689;DHT22;62504;46.070;14.492;2023-02-03T09:43:28;12.00;99.90
64689;DHT22;62504;46.070;14.492;2023-02-03T09:46:07;10.90;99.90
64689;DHT22;62504;46.070;14.492;2023-02-03T09:48:42;10.50;99.90
64689;DHT22;62504;46.070;14.492;2023-02-03T09:51:19;10.20;99.90
64689;DHT22;62504;46.070;14.492;2023-02-03T09:56:34;9.20;99.90
64689;DHT22;62504;46.070;14.492;2023-02-03T09:59:01;10.80;99.90
64689;DHT22;62504;46.070;14.492;2023-02-03T10:01:41;11.50;99.90
64689;DHT22;62504;46.070;14.492;2023-02-03T10:05:25;11.60;99.90
64689;DHT22;62504;46.070;14.492;2023-02-03T10:18:13;11.60;99.90
64689;DHT22;62504;46.070;14.492;2023-02-03T10:20:50;11.40;99.90
64689;DHT22;62504;46.070;14.492;2023-02-03T10:23:23;11.10;99.90
64689;DHT22;62504;46.070;14.492;2023-02-03T10:25:52;10.30;99.90
64689;DHT22;62504;46.070;14.492;2023-02-03T10:28:23;9.80;99.90
64689;DHT22;62504;46.070;14.492;2023-02-03T10:31:00;9.40;99.90
64689;DHT22;62504;46.070;14.492;2023-02-03T10:33:30;9.30;99.90
64689;DHT22;62504;46.070;14.492;2023-02-03T10:39:30;9.50;99.90
64689;DHT22;62504;46.070;14.492;2023-02-03T10:41:30;10.00;99.90
64689;DHT22;62504;46.070;14.492;2023-02-03T10:43:57;10.20;99.90
64689;DHT22;62504;46.070;14.492;2023-02-03T10:46:26;9.80;99.90
64689;DHT22;62504;46.070;14.492;2023-02-03T10:48:52;9.60;99.90
64689;DHT22;62504;46.070;14.492;2023-02-03T10:51:21;9.90;99.90
64689;DHT22;62504;46.070;14.492;2023-02-03T10:53:47;10.00;99.90
64689;DHT22;62504;46.070;14.492;2023-02-03T10:56:17;10.20;99.90
64689;DHT22;62504;46.070;14.492;2023-02-03T10:58:53;10.30;99.90
64689;DHT22;62504;46.070;14.492;2023-02-03T11:01:22;10.50;99.90
64689;DHT22;62504;46.070;14.492;2023-02-03T11:04:01;10.30;99.90
64689;DHT22;62504;46.070;14.492;2023-02-03T11:06:28;9.80;99.90
64689;DHT22;62504;46.070;14.492;2023-02-03T11:08:54;9.70;99.90
64689;DHT22;62504;46.070;14.492;2023-02-03T11:11:24;10.00;99.90
64689;DHT22;62504;46.070;14.492;2023-02-03T11:14:15;10.20;99.90
64689;DHT22;62504;46.070;14.492;2023-02-03T11:16:40;10.40;99.90
64689;DHT22;62504;46.070;14.492;2023-02-03T11:19:16;10.10;99.90
64689;DHT22;62504;46.070;14.492;2023-02-03T11:21:48;9.60;99.90
64689;DHT22;62504;46.070;14.492;2023-02-03T11:24:21;9.70;99.90
64689;DHT22;62504;46.070;14.492;2023-02-03T11:26:57;10.10;99.90
64689;DHT22;62504;46.070;14.492;2023-02-03T11:29:27;10.10;99.90
64689;DHT22;62504;46.070;14.492;2023-02-03T11:31:55;10.30;99.90
64689;DHT22;62504;46.070;14.492;2023-02-03T11:34:31;10.20;99.90
64689;DHT22;62504;46.070;14.492;2023-02-03T11:37:31;10.30;99.90
64689;DHT22;62504;46.070;14.492;2023-02-03T11:53:46;10.50;99.90
64689;DHT22;62504;46.070;14.492;2023-02-03T11:56:41;10.50;99.90
64689;DHT22;62504;46.070;14.492;2023-02-03T12:07:42;10.70;99.90
64689;DHT22;62504;46.070;14.492;2023-02-03T12:21:27;10.70;99.90
64689;DHT22;62504;46.070;14.492;2023-02-03T12:26:38;10.90;99.90
64689;DHT22;62504;46.070;14.492;2023-02-03T12:29:13;10.90;99.90
64689;DHT22;62504;46.070;14.492;2023-02-03T12:34:39;10.70;99.90
64689;DHT22;62504;46.070;14.492;2023-02-03T12:37:17;10.60;99.90
64689;DHT22;62504;46.070;14.492;2023-02-03T12:42:43;10.60;99.90
64689;DHT22;62504;46.070;14.492;2023-02-03T12:45:20;10.60;99.90
64689;DHT22;62504;46.070;14.492;2023-02-03T12:48:01;10.50;99.90
64689;DHT22;62504;46.070;14.492;2023-02-03T12:53:04;10.40;99.90
64689;DHT22;62504;46.070;14.492;2023-02-03T12:55:38;10.50;99.90
64689;DHT22;62504;46.070;14.492;2023-02-03T12:58:24;10.50;99.90
64689;DHT22;62504;46.070;14.492;2023-02-03T13:03:44;10.60;99.90
64689;DHT22;62504;46.070;14.492;2023-02-03T13:19:48;10.70;99.90
64689;DHT22;62504;46.070;14.492;2023-02-03T13:22:15;10.70;99.90
64689;DHT22;62504;46.070;14.492;2023-02-03T13:25:03;10.60;99.90
64689;DHT22;62504;46.070;14.492;2023-02-03T13:41:22;10.60;99.90
64689;DHT22;62504;46.070;14.492;2023-02-03T13:43:53;10.60;99.90
64689;DHT22;62504;46.070;14.492;2023-02-03T13:46:21;10.50;99.90
64689;DHT22;62504;46.070;14.492;2023-02-03T13:48:48;10.50;99.90
64689;DHT22;62504;46.070;14.492;2023-02-03T13:51:17;10.50;99.90
64689;DHT22;62504;46.070;14.492;2023-02-03T13:53:45;10.60;99.90
64689;DHT22;62504;46.070;14.492;2023-02-03T13:56:21;10.60;99.90
64689;DHT22;62504;46.070;14.492;2023-02-03T14:01:36;10.60;99.90
64689;DHT22;62504;46.070;14.492;2023-02-03T14:04:07;10.50;99.90
64689;DHT22;62504;46.070;14.492;2023-02-03T14:11:50;10.50;99.90
64689;DHT22;62504;46.070;14.492;2023-02-03T14:16:49;10.60;99.90
64689;DHT22;62504;46.070;14.492;2023-02-03T14:22:19;10.50;99.90
64689;DHT22;62504;46.070;14.492;2023-02-03T14:24:47;10.40;99.90
64689;DHT22;62504;46.070;14.492;2023-02-03T14:27:22;10.40;99.90
64689;DHT22;62504;46.070;14.492;2023-02-03T14:30:14;10.40;99.90
64689;DHT22;62504;46.070;14.492;2023-02-03T14:32:54;10.40;99.90
64689;DHT22;62504;46.070;14.492;2023-02-03T14:35:30;10.30;99.90
64689;DHT22;62504;46.070;14.492;2023-02-03T14:38:00;10.40;99.90
64689;DHT22;62504;46.070;14.492;2023-02-03T14:40:54;10.40;99.90
64689;DHT22;62504;46.070;14.492;2023-02-03T14:51:25;10.30;99.90
64689;DHT22;62504;46.070;14.492;2023-02-03T14:59:46;10.20;99.90
64689;DHT22;62504;46.070;14.492;2023-02-03T15:02:19;10.20;99.90
64689;DHT22;62504;46.070;14.492;2023-02-03T15:04:47;10.20;99.90
64689;DHT22;62504;46.070;14.492;2023-02-03T15:07:34;10.20;99.90
64689;DHT22;62504;46.070;14.492;2023-02-03T15:10:00;10.20;99.90
64689;DHT22;62504;46.070;14.492;2023-02-03T15:12:26;10.10;99.90
64689;DHT22;62504;46.070;14.492;2023-02-03T15:17:50;10.00;99.90
64689;DHT22;62504;46.070;14.492;2023-02-03T15:20:39;10.00;99.90
64689;DHT22;62504;46.070;14.492;2023-02-03T15:23:22;10.00;99.90
64689;DHT22;62504;46.070;14.492;2023-02-03T15:25:56;9.90;99.90
64689;DHT22;62504;46.070;14.492;2023-02-03T15:28:24;9.90;99.90
64689;DHT22;62504;46.070;14.492;2023-02-03T15:31:05;9.80;99.90
64689;DHT22;62504;46.070;14.492;2023-02-03T15:33:35;9.80;99.90
64689;DHT22;62504;46.070;14.492;2023-02-03T15:36:07;9.80;99.90
64689;DHT22;62504;46.070;14.492;2023-02-03T15:38:39;9.70;99.90
64689;DHT22;62504;46.070;14.492;2023-02-03T15:41:13;9.60;99.90
64689;DHT22;62504;46.070;14.492;2023-02-03T15:43:43;9.60;99.90
64689;DHT22;62504;46.070;14.492;2023-02-03T15:46:15;9.50;99.90
64689;DHT22;62504;46.070;14.492;2023-02-03T15:49:17;9.60;99.90
64689;DHT22;62504;46.070;14.492;2023-02-03T15:51:50;9.60;99.90
64689;DHT22;62504;46.070;14.492;2023-02-03T15:57:06;9.40;99.90
64689;DHT22;62504;46.070;14.492;2023-02-03T15:59:44;9.30;99.90
64689;DHT22;62504;46.070;14.492;2023-02-03T16:02:25;9.30;99.90
64689;DHT22;62504;46.070;14.492;2023-02-03T16:04:52;9.20;99.90
64689;DHT22;62504;46.070;14.492;2023-02-03T16:07:27;9.10;99.90
64689;DHT22;62504;46.070;14.492;2023-02-03T16:09:55;9.10;99.90
64689;DHT22;62504;46.070;14.492;2023-02-03T16:12:29;9.10;99.90
64689;DHT22;62504;46.070;14.492;2023-02-03T16:14:56;9.10;99.90
64689;DHT22;62504;46.070;14.492;2023-02-03T16:19:49;9.00;99.90
64689;DHT22;62504;46.070;14.492;2023-02-03T16:22:45;9.00;99.90
64689;DHT22;62504;46.070;14.492;2023-02-03T16:25:17;9.00;99.90
64689;DHT22;62504;46.070;14.492;2023-02-03T16:27:44;9.00;99.90
64689;DHT22;62504;46.070;14.492;2023-02-03T16:33:14;9.00;99.90
64689;DHT22;62504;46.070;14.492;2023-02-03T16:36:12;8.90;99.90
64689;DHT22;62504;46.070;14.492;2023-02-03T16:39:00;8.80;99.90
64689;DHT22;62504;46.070;14.492;2023-02-03T16:41:45;8.80;99.90
64689;DHT22;62504;46.070;14.492;2023-02-03T16:44:29;8.90;99.90
64689;DHT22;62504;46.070;14.492;2023-02-03T16:47:28;8.90;99.90
64689;DHT22;62504;46.070;14.492;2023-02-03T16:50:21;8.90;99.90
64689;DHT22;62504;46.070;14.492;2023-02-03T16:53:26;8.80;99.90
64689;DHT22;62504;46.070;14.492;2023-02-03T16:55:54;8.80;99.90
64689;DHT22;62504;46.070;14.492;2023-02-03T16:58:20;8.90;99.90
64689;DHT22;62504;46.070;14.492;2023-02-03T17:00:47;9.00;99.90
64689;DHT22;62504;46.070;14.492;2023-02-03T17:03:18;9.00;99.90
64689;DHT22;62504;46.070;14.492;2023-02-03T17:05:45;9.00;99.90
64689;DHT22;62504;46.070;14.492;2023-02-03T17:08:12;8.90;99.90
64689;DHT22;62504;46.070;14.492;2023-02-03T17:10:40;8.90;99.90
64689;DHT22;62504;46.070;14.492;2023-02-03T17:13:06;9.00;99.90
64689;DHT22;62504;46.070;14.492;2023-02-03T17:15:48;9.10;99.90
64689;DHT22;62504;46.070;14.492;2023-02-03T17:18:14;9.10;99.90
64689;DHT22;62504;46.070;14.492;2023-02-03T17:20:42;9.10;99.90
64689;DHT22;62504;46.070;14.492;2023-02-03T17:23:08;9.10;99.90
64689;DHT22;62504;46.070;14.492;2023-02-03T17:25:34;9.10;99.90
64689;DHT22;62504;46.070;14.492;2023-02-03T17:28:04;9.10;99.90
64689;DHT22;62504;46.070;14.492;2023-02-03T17:30:31;9.10;99.90
64689;DHT22;62504;46.070;14.492;2023-02-03T17:33:00;9.20;99.90
64689;DHT22;62504;46.070;14.492;2023-02-03T17:35:27;9.10;99.90
64689;DHT22;62504;46.070;14.492;2023-02-03T17:37:53;9.10;99.90
64689;DHT22;62504;46.070;14.492;2023-02-03T17:40:20;9.10;99.90
64689;DHT22;62504;46.070;14.492;2023-02-03T17:42:45;9.00;99.90
64689;DHT22;62504;46.070;14.492;2023-02-03T17:45:11;9.00;99.90
64689;DHT22;62504;46.070;14.492;2023-02-03T17:47:37;8.90;99.90
64689;DHT22;62504;46.070;14.492;2023-02-03T17:50:03;8.90;99.90
64689;DHT22;62504;46.070;14.492;2023-02-03T17:52:29;8.90;99.90
64689;DHT22;62504;46.070;14.492;2023-02-03T17:54:55;9.00;99.90
64689;DHT22;62504;46.070;14.492;2023-02-03T17:57:21;9.00;99.90
64689;DHT22;62504;46.070;14.492;2023-02-03T17:59:46;8.80;99.90
64689;DHT22;62504;46.070;14.492;2023-02-03T18:02:12;8.70;99.90
64689;DHT22;62504;46.070;14.492;2023-02-03T18:04:38;8.60;99.90
64689;DHT22;62504;46.070;14.492;2023-02-03T18:07:04;8.70;99.90
64689;DHT22;62504;46.070;14.492;2023-02-03T18:09:29;8.80;99.90
64689;DHT22;62504;46.070;14.492;2023-02-03T18:11:55;8.90;99.90
64689;DHT22;62504;46.070;14.492;2023-02-03T18:14:20;8.90;99.90
64689;DHT22;62504;46.070;14.492;2023-02-03T18:16:47;9.00;99.90